Time;durP1;ratioP1;P1;durP2;ratioP2;P2;SDS_P1;SDS_P2;PMS_P1;PMS_P2;Temp;Humidity;BMP_temperature;BMP_pressure;BME280_temperature;BME280_humidity;BME280_pressure;Samples;Min_cycle;Max_cycle;Signal;HPM_P1;HPM_P2
2022/03/05 00:00:43;;;;;;;48.73;23.93;;;-0.70;99.90;;;;;;4993750;28;20199;-51
2022/03/05 00:03:12;;;;;;;56.03;25.33;;;-0.70;99.90;;;;;;4992248;28;20744;-52
2022/03/05 00:05:40;;;;;;;52.27;24.63;;;-0.70;99.90;;;;;;4995657;28;20232;-51
2022/03/05 00:08:09;;;;;;;54.27;25.13;;;-0.70;99.90;;;;;;5009130;28;20207;-51
2022/03/05 00:10:37;;;;;;;55.33;25.13;;;-0.80;99.90;;;;;;5012477;28;20212;-51
2022/03/05 00:13:06;;;;;;;55.93;24.57;;;-0.80;99.90;;;;;;5012122;28;20261;-51
2022/03/05 00:15:35;;;;;;;64.17;27.53;;;-0.80;99.90;;;;;;5011475;28;20679;-51
2022/03/05 00:18:03;;;;;;;64.37;27.23;;;-0.80;99.90;;;;;;5012056;28;20281;-51
2022/03/05 00:20:31;;;;;;;58.73;27.43;;;-0.80;99.90;;;;;;5012378;28;20265;-51
2022/03/05 00:22:59;;;;;;;61.93;27.13;;;-0.80;99.90;;;;;;5011936;28;20211;-51
2022/03/05 00:25:28;;;;;;;59.63;26.60;;;-0.90;99.90;;;;;;5012038;28;20208;-51
2022/03/05 00:27:56;;;;;;;65.97;27.50;;;-0.80;99.90;;;;;;5011911;28;20230;-51
2022/03/05 00:30:25;;;;;;;64.10;27.47;;;-0.90;99.90;;;;;;5012266;28;20211;-51
2022/03/05 00:32:53;;;;;;;60.50;26.00;;;-0.90;99.90;;;;;;5011583;28;20215;-50
2022/03/05 00:35:21;;;;;;;59.10;25.27;;;-1.00;99.90;;;;;;5011290;28;20277;-51
2022/03/05 00:37:49;;;;;;;55.13;25.73;;;-1.00;99.90;;;;;;5012440;28;20223;-50
2022/03/05 00:40:18;;;;;;;64.80;27.80;;;-1.00;99.90;;;;;;5012522;28;20214;-50
2022/03/05 00:42:46;;;;;;;58.40;25.00;;;-1.00;99.90;;;;;;5011777;28;20202;-51
2022/03/05 00:45:14;;;;;;;52.80;23.70;;;-1.10;99.90;;;;;;5012624;28;20269;-51
2022/03/05 00:47:44;;;;;;;54.20;24.17;;;-1.10;99.90;;;;;;5012064;28;20207;-51
2022/03/05 00:50:12;;;;;;;50.40;24.00;;;-1.10;99.90;;;;;;5011860;28;20207;-52
2022/03/05 00:52:41;;;;;;;56.43;24.23;;;-1.20;99.90;;;;;;5011161;28;20211;-52
2022/03/05 00:55:10;;;;;;;63.30;25.97;;;-1.20;99.90;;;;;;5011205;28;20297;-51
2022/03/05 00:57:38;;;;;;;54.97;24.23;;;-1.30;99.90;;;;;;5012208;28;20281;-50
2022/03/05 01:00:08;;;;;;;54.50;23.87;;;-1.30;99.90;;;;;;5011762;28;20206;-50
2022/03/05 01:02:36;;;;;;;53.87;24.30;;;-1.30;99.90;;;;;;5011348;28;20203;-52
2022/03/05 01:05:07;;;;;;;62.60;26.17;;;-1.40;99.90;;;;;;5011378;28;20237;-51
2022/03/05 01:07:35;;;;;;;54.23;24.20;;;-1.40;99.90;;;;;;5011845;28;20261;-51
2022/03/05 01:10:04;;;;;;;58.20;24.50;;;-1.40;99.90;;;;;;5011847;28;20581;-50
2022/03/05 01:12:32;;;;;;;51.87;22.20;;;-1.40;99.90;;;;;;5010807;28;20238;-51
2022/03/05 01:15:00;;;;;;;58.77;24.97;;;-1.40;99.90;;;;;;5011860;28;20223;-51
2022/03/05 01:17:28;;;;;;;60.93;25.60;;;-1.40;99.90;;;;;;5011758;28;20250;-52
2022/03/05 01:19:57;;;;;;;61.40;26.00;;;-1.50;99.90;;;;;;5011835;28;20207;-52
2022/03/05 01:22:26;;;;;;;52.87;24.00;;;-1.40;99.90;;;;;;5011720;28;20269;-51
2022/03/05 01:24:54;;;;;;;51.17;22.77;;;-1.40;99.90;;;;;;5011942;28;20284;-51
2022/03/05 01:27:22;;;;;;;56.63;24.23;;;-1.40;99.90;;;;;;5011488;28;20199;-51
2022/03/05 01:29:51;;;;;;;54.17;22.77;;;-1.50;99.90;;;;;;5011504;28;20206;-52
2022/03/05 01:32:19;;;;;;;51.27;21.87;;;-1.50;99.90;;;;;;5011090;28;20230;-51
2022/03/05 01:34:47;;;;;;;53.87;23.07;;;-1.50;99.90;;;;;;5010732;28;20304;-51
2022/03/05 01:37:15;;;;;;;51.73;22.37;;;-1.50;99.90;;;;;;5011551;28;20226;-51
2022/03/05 01:39:44;;;;;;;53.13;22.43;;;-1.50;99.90;;;;;;5012323;28;20245;-52
2022/03/05 01:42:12;;;;;;;53.07;22.40;;;-1.50;99.90;;;;;;5010557;28;20249;-51
2022/03/05 01:44:40;;;;;;;59.93;24.27;;;-1.60;99.90;;;;;;5011404;28;20231;-51
2022/03/05 01:47:10;;;;;;;50.80;21.87;;;-1.60;99.90;;;;;;5011446;28;20213;-51
2022/03/05 01:49:38;;;;;;;55.00;23.47;;;-1.60;99.90;;;;;;5011497;28;20233;-50
2022/03/05 01:52:07;;;;;;;52.10;22.47;;;-1.60;99.90;;;;;;5011213;28;20209;-51
2022/03/05 01:54:35;;;;;;;48.33;21.40;;;-1.60;99.90;;;;;;5010932;28;20751;-51
2022/03/05 01:57:05;;;;;;;50.13;22.20;;;-1.60;99.90;;;;;;5011096;28;20229;-51
2022/03/05 01:59:34;;;;;;;49.80;21.60;;;-1.60;99.90;;;;;;5011307;28;20211;-51
2022/03/05 02:02:03;;;;;;;53.00;21.97;;;-1.70;99.90;;;;;;5011391;28;20264;-51
2022/03/05 02:04:31;;;;;;;51.17;20.90;;;-1.60;99.90;;;;;;5011033;28;20636;-51
2022/03/05 02:07:00;;;;;;;49.77;21.40;;;-1.70;99.90;;;;;;5011367;28;20667;-52
2022/03/05 02:09:28;;;;;;;48.43;21.60;;;-1.70;99.90;;;;;;5011104;28;20266;-52
2022/03/05 02:11:56;;;;;;;52.37;22.40;;;-1.70;99.90;;;;;;5010917;28;20221;-52
2022/03/05 02:14:26;;;;;;;48.37;20.77;;;-1.70;99.90;;;;;;5010968;28;20261;-51
2022/03/05 02:16:54;;;;;;;48.17;20.70;;;-1.70;99.90;;;;;;5011105;28;20206;-51
2022/03/05 02:19:22;;;;;;;51.87;21.93;;;-1.80;99.90;;;;;;5010964;28;20230;-54
2022/03/05 02:21:52;;;;;;;50.83;22.10;;;-1.80;99.90;;;;;;4993882;28;20207;-54
2022/03/05 02:24:31;;;;;;;54.17;22.30;;;-1.90;99.90;;;;;;4991089;28;20241;-51
2022/03/05 02:27:00;;;;;;;55.83;22.40;;;-1.90;99.90;;;;;;4991916;28;20216;-53
2022/03/05 02:29:28;;;;;;;52.93;21.67;;;-1.90;99.90;;;;;;4990923;28;20227;-53
2022/03/05 02:31:56;;;;;;;51.30;22.07;;;-1.80;99.90;;;;;;4991082;28;20215;-54
2022/03/05 02:34:25;;;;;;;50.20;21.60;;;-1.90;99.90;;;;;;4990408;28;20278;-53
2022/03/05 02:36:54;;;;;;;50.73;23.10;;;-1.90;99.90;;;;;;4991979;28;20214;-53
2022/03/05 02:39:24;;;;;;;53.53;22.30;;;-1.90;99.90;;;;;;4993018;28;20584;-53
2022/03/05 02:41:52;;;;;;;54.60;21.70;;;-1.90;99.90;;;;;;4995569;28;20257;-53
2022/03/05 02:44:20;;;;;;;56.57;21.33;;;-1.90;99.90;;;;;;5014723;28;20234;-51
2022/03/05 02:46:50;;;;;;;53.30;22.10;;;-1.90;99.90;;;;;;5014167;28;20210;-51
2022/03/05 02:49:18;;;;;;;47.30;21.07;;;-1.90;99.90;;;;;;5014468;28;20206;-51
2022/03/05 02:51:47;;;;;;;53.50;22.50;;;-2.00;99.90;;;;;;5013822;28;20244;-51
2022/03/05 02:54:16;;;;;;;53.60;21.33;;;-2.00;99.90;;;;;;5014070;28;20795;-52
2022/03/05 02:56:44;;;;;;;55.77;21.23;;;-2.00;99.90;;;;;;5014409;28;20236;-52
2022/03/05 02:59:13;;;;;;;52.63;22.27;;;-2.00;99.90;;;;;;5014148;28;20265;-51
2022/03/05 03:01:41;;;;;;;52.93;21.53;;;-2.00;99.90;;;;;;5014399;28;20757;-52
2022/03/05 03:04:09;;;;;;;52.57;22.60;;;-2.00;99.90;;;;;;5013322;28;20234;-51
2022/03/05 03:06:37;;;;;;;52.33;21.27;;;-2.00;99.90;;;;;;5014407;28;20224;-52
2022/03/05 03:09:05;;;;;;;51.63;22.70;;;-2.10;99.90;;;;;;5013664;28;20586;-51
2022/03/05 03:11:35;;;;;;;47.80;21.43;;;-2.10;99.90;;;;;;5013868;28;20210;-52
2022/03/05 03:14:03;;;;;;;53.80;21.57;;;-2.10;99.90;;;;;;5013507;28;20238;-52
2022/03/05 03:16:31;;;;;;;56.07;23.53;;;-2.10;99.90;;;;;;5013719;28;20203;-51
2022/03/05 03:19:00;;;;;;;55.73;20.73;;;-2.10;99.90;;;;;;5013550;28;20233;-51
2022/03/05 03:21:28;;;;;;;52.67;22.50;;;-2.10;99.90;;;;;;5013586;28;20252;-51
2022/03/05 03:23:56;;;;;;;58.10;23.03;;;-2.10;99.90;;;;;;5013678;28;20227;-52
2022/03/05 03:26:24;;;;;;;55.73;21.57;;;-2.10;99.90;;;;;;5012746;28;20233;-52
2022/03/05 03:28:54;;;;;;;54.27;22.73;;;-2.10;99.90;;;;;;5013165;28;20253;-49
2022/03/05 03:31:22;;;;;;;50.60;21.37;;;-2.10;99.90;;;;;;5013292;28;20207;-51
2022/03/05 03:33:50;;;;;;;52.20;21.90;;;-2.10;99.90;;;;;;5012048;28;20252;-50
2022/03/05 03:36:18;;;;;;;54.30;21.70;;;-2.10;99.90;;;;;;5013322;28;20234;-52
2022/03/05 03:38:46;;;;;;;56.17;23.50;;;-2.10;99.90;;;;;;5013606;28;20230;-50
2022/03/05 03:41:14;;;;;;;52.33;22.30;;;-2.20;99.90;;;;;;5013451;28;20541;-52
2022/03/05 03:43:43;;;;;;;53.13;23.10;;;-2.20;99.90;;;;;;5012442;28;20716;-51
2022/03/05 03:46:12;;;;;;;55.47;22.30;;;-2.20;99.90;;;;;;5013183;28;20214;-51
2022/03/05 03:48:40;;;;;;;57.20;24.53;;;-2.20;99.90;;;;;;5012781;28;20264;-51
2022/03/05 03:51:09;;;;;;;53.87;22.67;;;-2.20;99.90;;;;;;5013201;28;20210;-51
2022/03/05 03:53:37;;;;;;;56.90;22.40;;;-2.30;99.90;;;;;;5012630;28;20268;-51
2022/03/05 03:56:06;;;;;;;56.20;23.47;;;-2.20;99.90;;;;;;5012639;28;20202;-52
2022/03/05 03:58:34;;;;;;;55.47;22.70;;;-2.20;99.90;;;;;;5012987;28;20268;-50
2022/03/05 04:01:02;;;;;;;57.20;23.30;;;-2.20;99.90;;;;;;5012709;28;20236;-51
2022/03/05 04:03:32;;;;;;;60.87;23.77;;;-2.30;99.90;;;;;;5011408;28;20241;-51
2022/03/05 04:06:00;;;;;;;57.30;23.80;;;-2.30;99.90;;;;;;5013252;28;20233;-51
2022/03/05 04:08:42;;;;;;;56.37;22.93;;;-2.30;99.90;;;;;;5012751;28;20261;-51
2022/03/05 04:11:11;;;;;;;53.80;22.10;;;-2.30;99.90;;;;;;5012869;28;20214;-51
2022/03/05 04:13:40;;;;;;;52.37;22.60;;;-2.40;99.90;;;;;;5011473;28;20264;-52
2022/03/05 04:16:08;;;;;;;58.50;23.13;;;-2.40;99.90;;;;;;5012899;28;20569;-51
2022/03/05 04:18:37;;;;;;;53.93;22.17;;;-2.40;99.90;;;;;;5012562;28;20693;-52
2022/03/05 04:21:07;;;;;;;54.27;23.30;;;-2.40;99.90;;;;;;5012763;28;20261;-51
2022/03/05 04:23:35;;;;;;;52.43;22.83;;;-2.40;99.90;;;;;;5011721;28;20233;-51
2022/03/05 04:26:03;;;;;;;56.47;22.53;;;-2.40;99.90;;;;;;5011824;28;20235;-51
2022/03/05 04:28:31;;;;;;;54.27;23.83;;;-2.50;99.90;;;;;;5012562;28;20209;-51
2022/03/05 04:30:59;;;;;;;54.47;21.53;;;-2.50;99.90;;;;;;5012555;28;20217;-52
2022/03/05 04:33:28;;;;;;;56.03;23.27;;;-2.50;99.90;;;;;;5011638;28;20258;-51
2022/03/05 04:35:58;;;;;;;53.83;22.30;;;-2.50;99.90;;;;;;5011652;28;20206;-51
2022/03/05 04:38:26;;;;;;;59.83;23.67;;;-2.50;99.90;;;;;;5011973;28;20214;-52
2022/03/05 04:40:54;;;;;;;54.67;21.60;;;-2.50;99.90;;;;;;5012470;28;20213;-51
2022/03/05 04:43:22;;;;;;;51.90;21.03;;;-2.50;99.90;;;;;;5010856;28;20730;-52
2022/03/05 04:45:51;;;;;;;53.70;22.07;;;-2.60;99.90;;;;;;5012414;28;20236;-52
2022/03/05 04:48:19;;;;;;;54.57;22.27;;;-2.60;99.90;;;;;;5011576;28;20209;-51
2022/03/05 04:50:48;;;;;;;53.93;23.33;;;-2.70;99.90;;;;;;5011376;28;20928;-52
2022/03/05 04:53:19;;;;;;;52.67;22.17;;;-2.60;99.90;;;;;;5011660;28;20302;-51
2022/03/05 04:55:48;;;;;;;51.70;22.23;;;-2.70;99.90;;;;;;5011895;28;20236;-51
2022/03/05 04:58:16;;;;;;;55.80;22.03;;;-2.70;99.90;;;;;;5011867;28;20245;-51
2022/03/05 05:00:45;;;;;;;49.33;20.80;;;-2.70;99.90;;;;;;5011194;28;20257;-50
2022/03/05 05:03:13;;;;;;;51.73;20.53;;;-2.70;99.90;;;;;;5010476;28;20295;-51
2022/03/05 05:05:42;;;;;;;47.60;21.40;;;-2.70;99.90;;;;;;5011288;28;20572;-51
2022/03/05 05:08:10;;;;;;;60.57;23.47;;;-2.70;99.90;;;;;;5010807;28;20687;-51
2022/03/05 05:10:39;;;;;;;50.73;22.40;;;-2.70;99.90;;;;;;5011143;28;20702;-50
2022/03/05 05:13:08;;;;;;;51.63;20.17;;;-2.70;99.90;;;;;;5004943;28;20245;-51
2022/03/05 05:15:36;;;;;;;47.73;20.13;;;-2.70;99.90;;;;;;5009215;28;20228;-51
2022/03/05 05:18:04;;;;;;;52.97;21.97;;;-2.80;99.90;;;;;;5005140;28;20204;-50
2022/03/05 05:20:32;;;;;;;48.43;20.37;;;-2.80;99.90;;;;;;5002606;28;20222;-50
2022/03/05 05:23:01;;;;;;;48.97;20.07;;;-2.80;99.90;;;;;;5010441;28;20263;-51
2022/03/05 05:25:29;;;;;;;53.60;21.87;;;-2.80;99.90;;;;;;4994349;28;20240;-52
2022/03/05 05:27:58;;;;;;;52.27;20.47;;;-2.80;99.90;;;;;;4994281;28;20294;-51
2022/03/05 05:30:26;;;;;;;54.03;21.47;;;-2.80;99.90;;;;;;4990837;28;20573;-51
2022/03/05 05:32:55;;;;;;;46.47;20.23;;;-2.90;99.90;;;;;;4992945;28;20205;-51
2022/03/05 05:35:23;;;;;;;46.37;21.10;;;-2.90;99.90;;;;;;4996235;28;20222;-51
2022/03/05 05:37:51;;;;;;;49.33;20.37;;;-2.90;99.90;;;;;;4994043;28;20272;-51
2022/03/05 05:40:20;;;;;;;47.57;20.53;;;-2.90;99.90;;;;;;4995276;28;20252;-51
2022/03/05 05:42:48;;;;;;;52.50;21.30;;;-2.90;99.90;;;;;;4991729;28;20206;-50
2022/03/05 05:45:17;;;;;;;49.13;21.37;;;-2.90;99.90;;;;;;5010497;28;20230;-51
2022/03/05 05:47:46;;;;;;;50.23;21.40;;;-2.90;99.90;;;;;;5010082;28;20732;-51
2022/03/05 05:50:14;;;;;;;51.47;21.23;;;-2.90;99.90;;;;;;5006797;28;20201;-52
2022/03/05 05:52:42;;;;;;;49.23;21.17;;;-2.90;99.90;;;;;;5009685;28;20259;-51
2022/03/05 05:55:10;;;;;;;49.57;21.47;;;-2.90;99.90;;;;;;5010609;28;20242;-51
2022/03/05 05:57:38;;;;;;;48.17;19.83;;;-2.90;99.90;;;;;;5010964;28;20220;-52
2022/03/05 06:00:08;;;;;;;51.37;22.20;;;-2.90;99.90;;;;;;5010960;28;20703;-53
2022/03/05 06:02:37;;;;;;;51.70;21.30;;;-2.90;99.90;;;;;;5010449;28;20237;-52
2022/03/05 06:05:06;;;;;;;50.93;21.43;;;-2.90;99.90;;;;;;5010529;28;20233;-53
2022/03/05 06:07:34;;;;;;;50.97;22.20;;;-2.90;99.90;;;;;;5011347;28;20271;-51
2022/03/05 06:10:03;;;;;;;53.77;22.10;;;-2.90;99.90;;;;;;5010866;28;20206;-51
2022/03/05 06:12:31;;;;;;;46.63;20.13;;;-2.90;99.90;;;;;;5010656;28;20225;-51
2022/03/05 06:14:59;;;;;;;46.97;20.67;;;-2.90;99.90;;;;;;5004105;28;20229;-51
2022/03/05 06:17:27;;;;;;;51.30;21.50;;;-2.80;99.90;;;;;;5004031;28;20340;-51
2022/03/05 06:19:57;;;;;;;48.33;20.67;;;-2.80;99.90;;;;;;5014041;28;20261;-50
2022/03/05 06:22:25;;;;;;;49.37;21.03;;;-2.80;99.90;;;;;;5013828;28;20236;-50
2022/03/05 06:24:53;;;;;;;47.23;21.50;;;-2.80;99.90;;;;;;5012816;28;20863;-51
2022/03/05 06:27:26;;;;;;;48.03;20.93;;;-2.70;99.90;;;;;;5013889;28;20214;-50
2022/03/05 06:29:54;;;;;;;49.77;21.77;;;-2.70;99.90;;;;;;5014453;28;20676;-51
2022/03/05 06:32:22;;;;;;;50.57;22.33;;;-2.70;99.90;;;;;;5013394;28;20217;-50
2022/03/05 06:34:54;;;;;;;54.27;22.53;;;-2.70;99.90;;;;;;4996479;28;20277;-51
2022/03/05 06:37:24;;;;;;;47.53;21.47;;;-2.70;99.90;;;;;;5014550;28;20252;-52
2022/03/05 06:39:52;;;;;;;46.83;21.03;;;-2.60;99.90;;;;;;5013869;28;20230;-51
2022/03/05 06:42:20;;;;;;;49.00;22.10;;;-2.60;99.90;;;;;;5013371;28;20268;-51
2022/03/05 06:44:48;;;;;;;47.27;21.67;;;-2.60;99.90;;;;;;5013408;28;20229;-51
2022/03/05 06:47:17;;;;;;;68.10;31.97;;;-2.40;99.90;;;;;;5013376;28;20214;-51
2022/03/05 06:49:45;;;;;;;61.13;28.03;;;-2.00;99.90;;;;;;5014250;28;20206;-51
2022/03/05 06:52:15;;;;;;;52.63;23.77;;;-1.80;99.90;;;;;;5013615;28;20567;-50
2022/03/05 06:54:45;;;;;;;46.43;22.73;;;-1.60;99.90;;;;;;5013768;28;20285;-50
2022/03/05 06:57:13;;;;;;;43.43;22.23;;;-1.50;99.90;;;;;;5013336;28;20235;-51
2022/03/05 06:59:41;;;;;;;43.77;23.00;;;-1.40;99.90;;;;;;5013574;28;20218;-51
2022/03/05 07:02:10;;;;;;;44.43;22.80;;;-1.20;99.90;;;;;;5013947;28;20245;-51
2022/03/05 07:04:38;;;;;;;46.47;23.50;;;-1.00;99.90;;;;;;5012871;28;20252;-51
2022/03/05 07:07:06;;;;;;;44.00;22.73;;;-0.90;99.90;;;;;;5005571;28;20698;-51
2022/03/05 07:09:34;;;;;;;42.37;22.97;;;-0.90;99.90;;;;;;4997145;28;20209;-50
2022/03/05 07:12:05;;;;;;;48.30;23.80;;;-0.80;99.90;;;;;;5010553;28;20209;-50
2022/03/05 07:14:33;;;;;;;44.07;23.40;;;-0.70;99.90;;;;;;5013361;28;20231;-50
2022/03/05 07:17:01;;;;;;;50.60;25.27;;;-0.60;99.90;;;;;;5014259;28;20207;-51
2022/03/05 07:19:29;;;;;;;54.10;25.90;;;-0.60;99.90;;;;;;5013561;28;20203;-50
2022/03/05 07:21:58;;;;;;;48.93;24.83;;;-0.50;99.90;;;;;;5013065;28;20233;-51
2022/03/05 07:24:26;;;;;;;42.47;23.07;;;-0.30;99.90;;;;;;5011902;28;20271;-50
2022/03/05 07:26:54;;;;;;;45.70;23.63;;;-0.10;99.90;;;;;;5012913;28;20216;-51
2022/03/05 07:29:23;;;;;;;48.53;26.40;;;0.00;99.90;;;;;;5013561;28;20212;-51
2022/03/05 07:31:51;;;;;;;46.30;26.00;;;0.30;99.90;;;;;;5012684;28;20228;-51
2022/03/05 07:34:19;;;;;;;47.93;24.93;;;0.50;99.90;;;;;;5013251;28;20312;-51
2022/03/05 07:36:48;;;;;;;45.43;24.47;;;0.70;99.90;;;;;;5013491;28;20287;-51
2022/03/05 07:39:16;;;;;;;44.93;26.40;;;0.80;99.90;;;;;;5013200;28;20210;-51
2022/03/05 07:41:44;;;;;;;47.27;24.33;;;0.90;99.90;;;;;;5012982;28;20265;-51
2022/03/05 07:44:12;;;;;;;42.90;24.57;;;1.10;99.90;;;;;;4993295;28;20282;-51
2022/03/05 07:46:41;;;;;;;40.73;23.93;;;1.20;99.90;;;;;;4993953;28;20669;-51
2022/03/05 07:49:10;;;;;;;45.20;25.23;;;1.30;99.90;;;;;;5001488;28;20199;-51
2022/03/05 07:51:39;;;;;;;45.47;25.73;;;1.40;99.90;;;;;;5012949;28;20207;-51
2022/03/05 07:54:07;;;;;;;44.47;26.07;;;1.50;99.90;;;;;;5012886;28;20240;-51
2022/03/05 07:56:36;;;;;;;46.57;25.57;;;1.50;99.90;;;;;;5011974;28;20282;-51
2022/03/05 07:59:04;;;;;;;42.43;24.33;;;1.60;99.90;;;;;;5013138;28;20193;-51
2022/03/05 08:01:32;;;;;;;42.57;24.33;;;1.70;99.90;;;;;;5012617;28;20317;-52
2022/03/05 08:04:02;;;;;;;42.30;24.83;;;1.90;99.90;;;;;;5012072;28;20228;-51
2022/03/05 08:06:30;;;;;;;49.60;25.10;;;1.90;99.90;;;;;;5012532;28;20233;-51
2022/03/05 08:08:59;;;;;;;50.70;25.87;;;1.80;99.90;;;;;;5000657;28;20807;-51
2022/03/05 08:11:27;;;;;;;50.07;25.50;;;1.60;99.90;;;;;;5001498;28;20238;-51
2022/03/05 08:13:55;;;;;;;48.17;26.00;;;1.60;99.90;;;;;;5003422;28;20309;-51
2022/03/05 08:16:24;;;;;;;49.70;24.23;;;1.60;99.90;;;;;;5007487;28;20243;-51
2022/03/05 08:18:52;;;;;;;47.43;24.13;;;1.60;99.90;;;;;;5007809;28;20214;-51
2022/03/05 08:21:29;;;;;;;46.53;24.03;;;1.60;99.90;;;;;;5011983;28;20248;-50
2022/03/05 08:23:58;;;;;;;46.40;24.33;;;1.70;99.90;;;;;;5012855;28;21096;-51
2022/03/05 08:26:26;;;;;;;44.93;24.40;;;1.70;99.90;;;;;;5010711;28;20207;-51
2022/03/05 08:28:54;;;;;;;45.97;24.17;;;1.80;99.90;;;;;;5011704;28;20231;-50
2022/03/05 08:31:22;;;;;;;43.27;23.33;;;1.90;99.90;;;;;;5012450;28;20633;-51
2022/03/05 08:33:51;;;;;;;47.50;24.27;;;2.00;99.90;;;;;;4997271;28;20234;-50
2022/03/05 08:36:19;;;;;;;48.67;24.83;;;2.00;99.90;;;;;;5010573;28;20568;-51
2022/03/05 08:38:49;;;;;;;48.30;24.97;;;2.10;99.90;;;;;;5011863;28;20244;-51
2022/03/05 08:41:17;;;;;;;43.27;23.37;;;2.10;99.90;;;;;;5011550;28;20284;-50
2022/03/05 08:43:45;;;;;;;48.27;24.77;;;2.20;99.90;;;;;;5010134;28;20229;-51
2022/03/05 08:46:13;;;;;;;44.33;23.80;;;2.30;99.90;;;;;;5011637;28;20201;-51
2022/03/05 08:48:42;;;;;;;40.97;23.23;;;2.40;99.90;;;;;;5010939;28;20212;-50
2022/03/05 08:51:10;;;;;;;41.50;23.50;;;2.40;99.90;;;;;;5011583;28;20229;-51
2022/03/05 08:53:38;;;;;;;43.13;25.17;;;2.40;99.90;;;;;;5010283;28;20299;-51
2022/03/05 08:56:08;;;;;;;44.73;23.43;;;2.50;99.90;;;;;;5011105;28;20206;-51
2022/03/05 08:58:36;;;;;;;43.80;23.73;;;2.60;99.90;;;;;;5011533;28;20218;-51
2022/03/05 09:01:04;;;;;;;42.57;24.13;;;2.70;99.90;;;;;;5011032;28;20271;-50
2022/03/05 09:03:32;;;;;;;44.13;24.50;;;2.70;99.90;;;;;;5010715;28;20253;-50
2022/03/05 09:06:01;;;;;;;38.80;23.20;;;2.80;99.90;;;;;;5002463;28;20715;-50
2022/03/05 09:08:30;;;;;;;42.50;23.37;;;2.90;99.90;;;;;;5008614;28;20206;-51
2022/03/05 09:10:58;;;;;;;40.63;22.03;;;2.90;99.90;;;;;;5009666;28;20262;-51
2022/03/05 09:13:27;;;;;;;41.53;23.53;;;2.90;99.90;;;;;;5008096;28;20313;-51
2022/03/05 09:15:56;;;;;;;41.40;24.23;;;2.90;99.90;;;;;;5009479;28;20690;-50
2022/03/05 09:18:24;;;;;;;43.53;24.00;;;2.90;99.90;;;;;;5008792;28;20211;-51
2022/03/05 09:20:52;;;;;;;43.43;24.20;;;3.00;99.90;;;;;;5010451;28;20221;-50
2022/03/05 09:23:21;;;;;;;37.73;23.33;;;3.10;99.90;;;;;;5011476;28;20277;-51
2022/03/05 09:25:49;;;;;;;40.67;24.93;;;3.20;99.90;;;;;;5009266;28;20268;-51
2022/03/05 09:28:17;;;;;;;38.60;23.17;;;3.20;99.90;;;;;;5011811;28;20216;-51
2022/03/05 09:30:47;;;;;;;39.97;24.07;;;3.30;99.90;;;;;;5011902;28;20694;-50
2022/03/05 09:33:15;;;;;;;37.97;22.37;;;3.30;99.90;;;;;;5009866;28;20704;-51
2022/03/05 09:35:43;;;;;;;37.97;22.47;;;3.40;99.90;;;;;;5009947;28;20267;-51
2022/03/05 09:38:12;;;;;;;38.93;23.43;;;3.40;99.90;;;;;;5009809;28;20270;-50
2022/03/05 09:40:40;;;;;;;35.37;22.13;;;3.50;99.90;;;;;;5008296;28;20257;-49
2022/03/05 09:43:09;;;;;;;35.53;21.93;;;3.50;99.90;;;;;;5008039;28;20282;-51
2022/03/05 09:45:37;;;;;;;34.40;21.37;;;3.50;99.90;;;;;;5009447;28;20210;-51
2022/03/05 09:48:07;;;;;;;36.43;21.57;;;3.60;99.90;;;;;;5012339;28;20207;-51
2022/03/05 09:50:35;;;;;;;32.63;20.37;;;3.70;99.90;;;;;;5013113;28;20273;-50
2022/03/05 09:53:03;;;;;;;36.87;21.87;;;3.80;99.90;;;;;;5013756;28;20276;-51
2022/03/05 09:55:31;;;;;;;32.50;20.10;;;3.90;99.90;;;;;;5014950;28;20213;-51
2022/03/05 09:58:00;;;;;;;32.60;20.70;;;4.00;99.90;;;;;;5015072;28;20242;-49
2022/03/05 10:00:30;;;;;;;33.20;21.77;;;4.00;99.90;;;;;;5009875;28;20213;-51
2022/03/05 10:02:59;;;;;;;31.70;20.23;;;4.00;99.90;;;;;;5011995;28;20237;-51
2022/03/05 10:05:31;;;;;;;31.83;21.13;;;4.10;99.90;;;;;;5014537;28;20285;-50
2022/03/05 10:08:10;;;;;;;30.37;19.97;;;4.10;99.90;;;;;;5014715;28;20226;-49
2022/03/05 10:10:50;;;;;;;30.10;20.70;;;4.20;99.90;;;;;;5012880;28;20780;-49
2022/03/05 10:13:21;;;;;;;32.87;21.07;;;4.20;99.90;;;;;;5011886;28;20280;-51
2022/03/05 10:15:51;;;;;;;36.97;21.47;;;4.20;99.90;;;;;;5013132;28;20213;-50
2022/03/05 10:18:26;;;;;;;32.00;20.80;;;4.20;99.90;;;;;;5012885;28;20297;-50
2022/03/05 10:20:56;;;;;;;30.37;19.77;;;4.20;99.90;;;;;;5012955;28;20211;-50
2022/03/05 10:23:25;;;;;;;30.37;19.80;;;4.20;99.90;;;;;;5012034;28;20241;-52
2022/03/05 10:25:54;;;;;;;31.97;20.40;;;4.20;99.90;;;;;;5012689;28;20257;-51
2022/03/05 10:28:24;;;;;;;29.60;19.53;;;4.30;99.90;;;;;;5012028;28;20273;-51
2022/03/05 10:30:55;;;;;;;27.50;18.83;;;4.40;99.90;;;;;;5012201;28;20299;-49
2022/03/05 10:33:29;;;;;;;28.60;18.30;;;4.40;99.90;;;;;;5007913;28;20322;-50
2022/03/05 10:36:00;;;;;;;32.77;20.33;;;4.50;99.90;;;;;;5012041;28;20265;-51
2022/03/05 10:38:47;;;;;;;36.70;20.13;;;4.50;99.90;;;;;;5012400;28;20242;-51
2022/03/05 10:41:17;;;;;;;30.07;19.53;;;4.50;99.90;;;;;;5013293;28;20216;-50
2022/03/05 10:43:47;;;;;;;29.27;19.17;;;4.60;99.90;;;;;;5013618;28;20255;-50
2022/03/05 10:46:15;;;;;;;27.80;18.33;;;4.60;99.90;;;;;;5014528;28;20221;-51
2022/03/05 10:48:45;;;;;;;28.80;18.77;;;4.60;99.90;;;;;;5013880;28;20684;-51
2022/03/05 10:51:17;;;;;;;28.73;19.43;;;4.60;99.90;;;;;;5014390;28;20218;-49
2022/03/05 10:53:47;;;;;;;29.07;19.13;;;4.70;99.90;;;;;;5013283;28;20241;-49
2022/03/05 10:56:28;;;;;;;28.67;18.77;;;4.80;99.90;;;;;;5012902;28;20212;-51
2022/03/05 10:59:09;;;;;;;26.60;18.13;;;4.80;99.90;;;;;;5008987;28;20213;-50
2022/03/05 11:01:39;;;;;;;26.20;17.17;;;4.80;99.90;;;;;;5012445;28;20204;-50
2022/03/05 11:04:09;;;;;;;27.07;17.87;;;4.90;99.90;;;;;;5009903;28;20230;-50
2022/03/05 11:06:40;;;;;;;28.00;18.73;;;5.00;99.90;;;;;;5012552;28;20661;-50
2022/03/05 11:09:10;;;;;;;25.70;18.17;;;5.20;99.90;;;;;;5010749;28;20731;-51
2022/03/05 11:11:40;;;;;;;25.53;17.67;;;5.20;99.90;;;;;;5012788;28;20212;-51
2022/03/05 11:14:13;;;;;;;29.83;18.10;;;5.30;99.90;;;;;;5011493;28;20655;-51
2022/03/05 11:16:41;;;;;;;24.53;16.83;;;5.30;99.90;;;;;;5012050;28;20920;-49
2022/03/05 11:19:10;;;;;;;23.30;16.47;;;5.50;99.90;;;;;;5008041;28;20207;-50
2022/03/05 11:21:39;;;;;;;22.20;15.00;;;5.60;99.90;;;;;;4995648;28;20206;-51
2022/03/05 11:24:08;;;;;;;21.53;14.37;;;5.80;99.90;;;;;;5009587;28;20641;-50
2022/03/05 11:26:38;;;;;;;21.57;15.50;;;5.90;99.90;;;;;;5008657;28;20584;-51
2022/03/05 11:29:28;;;;;;;22.03;15.43;;;6.00;99.90;;;;;;5012888;28;20207;-51
2022/03/05 11:32:11;;;;;;;22.13;14.20;;;6.10;99.90;;;;;;5013115;28;20209;-50
2022/03/05 11:34:45;;;;;;;24.00;16.70;;;6.10;99.90;;;;;;5013372;28;20234;-51
2022/03/05 11:37:18;;;;;;;21.93;14.77;;;6.10;99.90;;;;;;5013601;28;20205;-51
2022/03/05 11:39:46;;;;;;;21.50;14.47;;;6.20;99.90;;;;;;5013135;28;20218;-51
2022/03/05 11:42:28;;;;;;;20.23;14.47;;;6.20;99.90;;;;;;5012879;28;20273;-51
2022/03/05 11:44:57;;;;;;;22.43;15.27;;;6.20;99.90;;;;;;5012346;28;20234;-51
2022/03/05 11:47:28;;;;;;;21.60;15.17;;;6.30;99.90;;;;;;5012202;28;20688;-52
2022/03/05 11:50:11;;;;;;;22.70;15.50;;;6.40;99.90;;;;;;5013277;28;20260;-52
2022/03/05 11:53:04;;;;;;;21.03;14.87;;;6.40;99.90;;;;;;5012561;28;20673;-51
2022/03/05 11:55:42;;;;;;;17.60;12.77;;;6.50;99.90;;;;;;5012253;28;20220;-52
2022/03/05 11:58:32;;;;;;;18.70;13.53;;;6.60;99.90;;;;;;5012398;28;20255;-50
2022/03/05 12:01:32;;;;;;;22.90;14.13;;;6.60;99.90;;;;;;5013023;28;20261;-52
2022/03/05 12:04:28;;;;;;;22.83;14.00;;;6.60;99.90;;;;;;5010821;28;20238;-51
2022/03/05 12:06:58;;;;;;;18.17;12.83;;;6.70;99.90;;;;;;5011578;28;20213;-51
2022/03/05 12:09:43;;;;;;;17.13;11.67;;;6.70;99.90;;;;;;5011059;28;20276;-52
2022/03/05 12:12:14;;;;;;;16.47;11.67;;;6.90;99.90;;;;;;5011805;28;20288;-51
2022/03/05 12:15:14;;;;;;;18.73;13.07;;;7.00;99.90;;;;;;5012740;28;20227;-51
2022/03/05 12:17:45;;;;;;;16.73;12.10;;;7.20;99.90;;;;;;5011932;28;20235;-52
2022/03/05 12:20:18;;;;;;;16.90;12.20;;;7.20;99.90;;;;;;5001366;28;20672;-51
2022/03/05 12:22:58;;;;;;;17.87;12.53;;;7.30;99.90;;;;;;4988100;28;20239;-51
2022/03/05 12:25:29;;;;;;;19.90;13.70;;;7.30;99.90;;;;;;4987712;28;20285;-51
2022/03/05 12:27:58;;;;;;;19.10;14.17;;;7.40;99.90;;;;;;4989454;28;20254;-50
2022/03/05 12:30:30;;;;;;;20.03;13.37;;;7.30;99.90;;;;;;4989799;28;20245;-51
2022/03/05 12:33:00;;;;;;;19.43;13.60;;;7.20;99.90;;;;;;4988111;28;20573;-51
2022/03/05 12:35:30;;;;;;;20.97;14.33;;;7.20;99.90;;;;;;4989531;28;20234;-51
2022/03/05 12:37:59;;;;;;;21.80;14.27;;;7.20;99.90;;;;;;4990298;28;20238;-51
2022/03/05 12:40:31;;;;;;;22.30;14.13;;;7.30;99.90;;;;;;5003672;28;20241;-51
2022/03/05 12:43:02;;;;;;;22.07;14.37;;;7.50;99.90;;;;;;5008902;28;20668;-51